Time;durP1;ratioP1;P1;durP2;ratioP2;P2;SDS_P1;SDS_P2;PMS_P1;PMS_P2;Temp;Humidity;BMP_temperature;BMP_pressure;BME280_temperature;BME280_humidity;BME280_pressure;Samples;Min_cycle;Max_cycle;Signal;HPM_P1;HPM_P2
2022/11/16 00:01:31;;;;;;;7.40;6.80;;;;;;;10.37;100.00;98935.69;5062357;28;20301;-75
2022/11/16 00:03:59;;;;;;;7.97;7.27;;;;;;;10.36;100.00;98934.00;5063970;28;20294;-76
2022/11/16 00:06:26;;;;;;;7.50;6.90;;;;;;;10.36;100.00;98931.41;5064947;28;20321;-76
2022/11/16 00:11:40;;;;;;;7.67;7.07;;;;;;;10.35;100.00;98941.81;5064734;28;20553;-76
2022/11/16 00:14:06;;;;;;;7.73;7.13;;;;;;;10.34;100.00;98938.41;5071821;28;20219;-76
2022/11/16 00:16:32;;;;;;;8.13;7.43;;;;;;;10.34;100.00;98933.22;5063327;28;20178;-76
2022/11/16 00:19:02;;;;;;;8.50;7.80;;;;;;;10.34;100.00;98943.56;5065179;28;22308;-76
2022/11/16 00:21:29;;;;;;;7.50;6.90;;;;;;;10.33;100.00;98946.19;5056743;28;20251;-76
2022/11/16 00:23:54;;;;;;;8.30;7.50;;;;;;;10.32;100.00;98939.31;5065709;28;20568;-76
2022/11/16 00:26:20;;;;;;;7.90;7.20;;;;;;;10.32;100.00;98931.56;5068803;28;20186;-76
2022/11/16 00:28:46;;;;;;;8.40;7.77;;;;;;;10.30;100.00;98929.03;5062700;28;20235;-76
2022/11/16 00:31:12;;;;;;;8.10;7.50;;;;;;;10.30;100.00;98935.91;5066014;28;20214;-76
2022/11/16 00:33:38;;;;;;;7.83;7.13;;;;;;;10.29;100.00;98944.56;5059441;28;20210;-76
2022/11/16 00:36:06;;;;;;;7.90;7.30;;;;;;;10.28;100.00;98941.16;5064690;28;20192;-76
2022/11/16 00:38:32;;;;;;;8.33;7.63;;;;;;;10.28;100.00;98948.91;5063073;28;20211;-76
2022/11/16 00:40:57;;;;;;;9.00;8.20;;;;;;;10.28;100.00;98941.16;5069125;28;20179;-75
2022/11/16 00:43:23;;;;;;;9.20;8.30;;;;;;;10.28;100.00;98933.41;5066930;28;20285;-76
2022/11/16 00:45:48;;;;;;;9.00;8.30;;;;;;;10.29;100.00;98939.41;5055622;28;20182;-76
2022/11/16 00:48:13;;;;;;;9.30;8.50;;;;;;;10.30;100.00;98935.91;5067454;28;20225;-76
2022/11/16 00:50:39;;;;;;;9.87;8.97;;;;;;;10.32;100.00;98937.59;5066653;28;20240;-76
2022/11/16 00:53:06;;;;;;;9.17;8.47;;;;;;;10.34;100.00;98934.94;5066845;28;20626;-76
2022/11/16 00:55:32;;;;;;;9.13;8.43;;;;;;;10.35;100.00;98928.88;5066607;28;20243;-76
2022/11/16 00:57:57;;;;;;;9.00;8.20;;;;;;;10.35;100.00;98922.00;5066965;28;20186;-75
2022/11/16 01:00:23;;;;;;;9.60;8.80;;;;;;;10.37;100.00;98927.94;5057284;28;20187;-76
2022/11/16 01:02:48;;;;;;;9.17;8.33;;;;;;;10.37;100.00;98925.34;5061733;28;20215;-76
2022/11/16 01:05:13;;;;;;;9.40;8.60;;;;;;;10.38;100.00;98931.41;5064152;28;20612;-76
2022/11/16 01:07:40;;;;;;;9.00;8.20;;;;;;;10.40;100.00;98932.22;5064708;28;20194;-76
2022/11/16 01:10:09;;;;;;;8.67;7.97;;;;;;;10.42;100.00;98933.03;5064191;28;20236;-76
2022/11/16 01:12:35;;;;;;;9.33;8.53;;;;;;;10.42;100.00;98924.41;5057599;28;20266;-76
2022/11/16 01:15:00;;;;;;;9.33;8.53;;;;;;;10.41;100.00;98926.16;5063809;28;20198;-76
2022/11/16 01:17:26;;;;;;;9.70;8.90;;;;;;;10.41;100.00;98914.94;5060364;28;20190;-75
2022/11/16 01:19:51;;;;;;;9.83;9.10;;;;;;;10.42;100.00;98919.22;5061876;28;20190;-76
2022/11/16 01:22:17;;;;;;;8.93;8.13;;;;;;;10.40;100.00;98923.59;5069444;28;20254;-76
2022/11/16 01:24:45;;;;;;;9.07;8.37;;;;;;;10.40;100.00;98919.28;5069114;28;20181;-76
2022/11/16 01:27:10;;;;;;;9.87;9.00;;;;;;;10.40;100.00;98914.13;5064731;28;20279;-76
2022/11/16 01:29:36;;;;;;;10.10;9.20;;;;;;;10.39;100.00;98912.44;5066142;28;20185;-76
2022/11/16 01:32:01;;;;;;;10.10;9.20;;;;;;;10.38;100.00;98910.72;5068381;28;20217;-76
2022/11/16 01:34:26;;;;;;;10.60;9.70;;;;;;;10.37;100.00;98906.41;5059165;28;20190;-76
2022/11/16 01:36:52;;;;;;;9.83;9.03;;;;;;;10.35;100.00;98901.31;5073125;28;20190;-76
2022/11/16 01:39:17;;;;;;;10.50;9.60;;;;;;;10.34;100.00;98911.69;5071688;28;20196;-76
2022/11/16 01:41:44;;;;;;;10.90;10.00;;;;;;;10.32;100.00;98913.47;5065832;28;20206;-76
2022/11/16 01:44:31;;;;;;;10.77;9.80;;;;;;;10.31;100.00;98907.44;5064555;28;20193;-76
2022/11/16 01:47:07;;;;;;;11.00;10.10;;;;;;;10.28;100.00;98907.53;5064384;28;20210;-76
2022/11/16 01:49:36;;;;;;;10.80;9.90;;;;;;;10.27;100.00;98911.00;5059708;28;20193;-76
2022/11/16 01:52:05;;;;;;;11.57;10.63;;;;;;;10.26;100.00;98914.50;5062946;28;20213;-75
2022/11/16 01:54:37;;;;;;;13.03;11.83;;;;;;;10.25;100.00;98899.03;5069355;28;20731;-76
2022/11/16 01:57:08;;;;;;;12.20;11.20;;;;;;;10.22;100.00;98900.81;5065829;28;20227;-76
2022/11/16 01:59:33;;;;;;;12.20;11.20;;;;;;;10.23;100.00;98914.56;5062880;28;20653;-76
2022/11/16 02:02:00;;;;;;;13.27;12.07;;;;;;;10.24;100.00;98907.69;5074962;28;20202;-75
2022/11/16 02:04:25;;;;;;;13.30;12.10;;;;;;;10.22;100.00;98912.88;5066276;28;20863;-76
2022/11/16 02:07:26;;;;;;;12.97;11.90;;;;;;;10.24;100.00;98918.84;5060957;28;20205;-77
2022/11/16 02:10:35;;;;;;;11.87;10.90;;;;;;;10.22;100.00;98918.91;5044370;28;20282;-76
2022/11/16 02:13:29;;;;;;;12.17;11.17;;;;;;;10.24;100.00;98931.78;5021353;28;20215;-76
2022/11/16 02:16:23;;;;;;;11.53;10.57;;;;;;;10.25;100.00;98940.41;5063808;28;20734;-75
2022/11/16 02:19:09;;;;;;;11.87;10.97;;;;;;;10.26;100.00;98942.09;5059460;28;20198;-76
2022/11/16 02:21:49;;;;;;;12.33;11.33;;;;;;;10.28;100.00;98943.75;5065513;28;20571;-76
2022/11/16 02:24:29;;;;;;;14.30;12.90;;;;;;;10.29;100.00;98934.22;5060802;28;20198;-75
2022/11/16 02:27:00;;;;;;;13.13;12.03;;;;;;;10.27;100.00;98943.78;5061642;28;21263;-75
2022/11/16 02:29:40;;;;;;;13.87;12.57;;;;;;;10.26;100.00;98934.34;5062917;28;20205;-76
2022/11/16 02:32:14;;;;;;;11.93;10.93;;;;;;;10.24;100.00;98939.53;5063455;28;20221;-76
2022/11/16 02:34:46;;;;;;;12.70;11.70;;;;;;;10.24;100.00;98936.97;5063267;28;20191;-77
2022/11/16 02:37:14;;;;;;;12.50;11.40;;;;;;;10.24;100.00;98936.97;5065044;28;20299;-76
2022/11/16 02:39:43;;;;;;;12.33;11.23;;;;;;;10.24;100.00;98931.78;5061750;28;20581;-76
2022/11/16 02:42:15;;;;;;;12.20;11.20;;;;;;;10.24;100.00;98933.53;5060794;28;20215;-76
2022/11/16 02:44:45;;;;;;;10.67;9.80;;;;;;;10.23;100.00;98932.66;5058955;28;20183;-76
2022/11/16 02:47:16;;;;;;;11.37;10.37;;;;;;;10.22;100.00;98918.06;5066025;28;20193;-75
2022/11/16 02:49:47;;;;;;;11.23;10.33;;;;;;;10.20;100.00;98918.09;5066735;28;20190;-77
2022/11/16 02:52:14;;;;;;;10.47;9.57;;;;;;;10.19;100.00;98918.16;5065496;28;20237;-76
2022/11/16 02:54:40;;;;;;;9.97;9.17;;;;;;;10.17;100.00;98922.53;5068246;28;20278;-76
2022/11/16 02:57:05;;;;;;;10.03;9.27;;;;;;;10.15;100.00;98935.47;5063296;28;20280;-76
2022/11/16 02:59:50;;;;;;;9.87;8.97;;;;;;;10.15;100.00;98930.31;5061274;28;20193;-76
2022/11/16 03:02:24;;;;;;;10.53;9.73;;;;;;;10.14;100.00;98927.78;5064206;28;20206;-76
2022/11/16 03:05:06;;;;;;;10.07;9.27;;;;;;;10.12;100.00;98930.44;5063664;28;20246;-76
2022/11/16 03:07:40;;;;;;;9.33;8.53;;;;;;;10.10;100.00;98937.38;5060854;28;20265;-76
2022/11/16 03:10:06;;;;;;;9.83;9.03;;;;;;;10.08;100.00;98939.16;5060418;28;20256;-76
2022/11/16 03:12:34;;;;;;;9.90;9.00;;;;;;;10.07;100.00;98942.63;5056054;28;20294;-76
2022/11/16 03:15:03;;;;;;;8.80;8.10;;;;;;;10.06;100.00;98936.59;5057425;28;20252;-76
2022/11/16 03:17:36;;;;;;;9.20;8.47;;;;;;;10.05;100.00;98928.91;5062748;28;20722;-76
2022/11/16 03:20:26;;;;;;;8.53;7.83;;;;;;;10.05;100.00;98921.13;5057729;28;20253;-76
2022/11/16 03:22:57;;;;;;;8.57;7.90;;;;;;;10.04;100.00;98927.19;5063735;28;20197;-77
2022/11/16 03:25:27;;;;;;;7.90;7.20;;;;;;;10.04;100.00;98919.44;5061073;28;20752;-76
2022/11/16 03:27:55;;;;;;;7.37;6.77;;;;;;;10.03;100.00;98915.16;5058449;28;20194;-77
2022/11/16 03:30:23;;;;;;;6.63;6.10;;;;;;;10.04;100.00;98927.19;5056804;28;20269;-77
2022/11/16 03:33:01;;;;;;;5.93;5.43;;;;;;;10.05;100.00;98928.91;5059514;28;20305;-76
2022/11/16 03:35:33;;;;;;;6.07;5.67;;;;;;;10.04;100.00;98925.47;5057988;28;20194;-76
2022/11/16 03:38:01;;;;;;;5.43;5.03;;;;;;;10.05;100.00;98909.09;5062016;28;20221;-76
2022/11/16 03:40:30;;;;;;;5.00;4.60;;;;;;;10.06;100.00;98915.91;5059686;28;20178;-76
2022/11/16 03:42:59;;;;;;;4.30;4.00;;;;;;;10.06;100.00;98931.41;5052795;28;20203;-76
2022/11/16 03:45:25;;;;;;;4.17;3.87;;;;;;;10.07;100.00;98932.28;5065616;28;20190;-76
2022/11/16 03:47:50;;;;;;;4.00;3.70;;;;;;;10.07;100.00;98922.78;5062713;28;20247;-77
2022/11/16 03:50:16;;;;;;;4.10;3.80;;;;;;;10.06;100.00;98902.16;5066267;28;20201;-77
2022/11/16 03:52:41;;;;;;;3.77;3.47;;;;;;;10.07;100.00;98917.59;5065631;28;20206;-76
2022/11/16 03:55:07;;;;;;;3.37;3.17;;;;;;;10.07;100.00;98927.13;5057913;28;20272;-77
2022/11/16 03:57:32;;;;;;;3.37;3.10;;;;;;;10.07;100.00;98937.44;5060299;28;20190;-76
2022/11/16 03:59:58;;;;;;;3.80;3.47;;;;;;;10.07;100.00;98940.88;5063618;28;20178;-76
2022/11/16 04:02:23;;;;;;;4.53;4.23;;;;;;;10.07;100.00;98938.28;5064274;28;21068;-76
2022/11/16 04:24:15;;;;;;;4.90;4.60;;;;;;;10.04;100.00;98925.47;5060615;28;20245;-75
2022/11/16 04:29:33;;;;;;;3.50;3.20;;;;;;;10.02;100.00;98932.41;5058071;28;20197;-75
2022/11/16 04:40:11;;;;;;;4.53;4.13;;;;;;;10.09;100.00;98939.97;5057867;28;20649;-76
2022/11/16 04:42:36;;;;;;;3.60;3.30;;;;;;;10.10;100.00;98934.78;5060311;28;20297;-76
2022/11/16 04:47:48;;;;;;;2.57;2.37;;;;;;;10.12;100.00;98943.34;5059942;28;20240;-76
2022/11/16 04:50:13;;;;;;;2.33;2.20;;;;;;;10.10;100.00;98945.13;5061696;28;20174;-75
2022/11/16 04:52:39;;;;;;;4.30;3.90;;;;;;;10.02;100.00;98937.59;5063525;28;20623;-76
2022/11/16 04:55:04;;;;;;;3.93;3.63;;;;;;;9.98;100.00;98945.47;5065060;28;20270;-76
2022/11/16 04:57:30;;;;;;;5.50;5.07;;;;;;;9.95;100.00;98945.56;5060387;28;20190;-76
2022/11/16 04:59:55;;;;;;;7.47;6.87;;;;;;;9.94;100.00;98939.53;5064128;28;20568;-76
2022/11/16 05:02:22;;;;;;;7.30;6.80;;;;;;;9.91;100.00;98949.94;5065485;28;20317;-76
2022/11/16 05:04:47;;;;;;;6.40;5.90;;;;;;;9.89;100.00;98944.84;5061549;28;20796;-76
2022/11/16 05:07:13;;;;;;;6.10;5.60;;;;;;;9.89;100.00;98947.41;5063115;28;20190;-75
2022/11/16 05:09:46;;;;;;;6.30;5.80;;;;;;;9.91;100.00;98955.97;5064684;28;20208;-76
2022/11/16 05:12:20;;;;;;;5.83;5.30;;;;;;;9.95;100.00;98964.50;5064522;28;20632;-76
2022/11/16 05:14:46;;;;;;;5.90;5.50;;;;;;;9.99;100.00;98948.00;5065428;28;20206;-75
2022/11/16 05:17:12;;;;;;;5.70;5.30;;;;;;;10.04;100.00;98940.13;5055587;28;20222;-75
2022/11/16 05:22:22;;;;;;;6.77;6.17;;;;;;;10.11;100.00;98949.41;5060829;28;20217;-75
2022/11/16 05:24:48;;;;;;;9.23;8.43;;;;;;;10.15;100.00;98953.56;5064654;28;20637;-74
2022/11/16 05:27:15;;;;;;;9.73;8.93;;;;;;;10.19;100.00;98955.19;5065488;28;20187;-75
2022/11/16 05:29:41;;;;;;;9.80;9.00;;;;;;;10.20;100.00;98951.72;5056307;28;20190;-75
2022/11/16 05:32:07;;;;;;;10.50;9.67;;;;;;;10.22;100.00;98954.25;5059253;28;20238;-76
2022/11/16 05:34:33;;;;;;;11.63;10.60;;;;;;;10.25;100.00;98954.16;5063262;28;20194;-75
2022/11/16 05:36:58;;;;;;;9.90;9.00;;;;;;;10.25;100.00;98949.00;5061786;28;20278;-75
2022/11/16 05:39:24;;;;;;;9.77;8.87;;;;;;;10.26;100.00;98968.78;5064324;28;20263;-75
2022/11/16 05:41:50;;;;;;;10.83;9.83;;;;;;;10.27;100.00;98959.31;5064187;28;20248;-75
2022/11/16 05:44:15;;;;;;;9.70;8.90;;;;;;;10.29;100.00;98966.13;5061703;28;20197;-75
2022/11/16 05:46:42;;;;;;;8.63;7.93;;;;;;;10.28;100.00;98968.75;5056067;28;20694;-75
2022/11/16 05:49:08;;;;;;;9.03;8.33;;;;;;;10.28;100.00;98973.94;5059725;28;20970;-76
2022/11/16 05:51:34;;;;;;;9.03;8.23;;;;;;;10.28;100.00;98973.94;5062914;28;20691;-75
2022/11/16 05:54:01;;;;;;;10.17;9.27;;;;;;;10.27;100.00;98970.47;5063206;28;20182;-75
2022/11/16 05:56:26;;;;;;;9.77;8.97;;;;;;;10.28;100.00;98979.94;5064924;28;20245;-75
2022/11/16 05:58:52;;;;;;;10.30;9.40;;;;;;;10.28;100.00;98979.94;5055480;28;20220;-77
2022/11/16 06:01:17;;;;;;;9.80;9.00;;;;;;;10.26;100.00;98983.47;5065090;28;20174;-75
2022/11/16 06:03:42;;;;;;;10.87;9.90;;;;;;;10.25;100.00;98980.03;5062030;28;20633;-75
2022/11/16 06:06:08;;;;;;;9.73;8.93;;;;;;;10.20;100.00;98982.75;5058226;28;20193;-75
2022/11/16 06:08:33;;;;;;;9.00;8.20;;;;;;;10.18;100.00;98991.44;5065398;28;20197;-75
2022/11/16 06:11:03;;;;;;;9.40;8.60;;;;;;;10.14;100.00;98988.06;5061730;28;20207;-76
2022/11/16 06:13:30;;;;;;;9.93;8.93;;;;;;;10.11;100.00;98989.91;5066112;28;20181;-76
2022/11/16 06:15:55;;;;;;;16.10;14.30;;;;;;;10.06;100.00;98997.78;5064051;28;20185;-76
2022/11/16 06:18:23;;;;;;;15.23;13.93;;;;;;;9.99;100.00;98999.69;5063881;28;20188;-76
2022/11/16 06:20:49;;;;;;;10.40;9.60;;;;;;;9.97;100.00;99004.06;5074956;28;20514;-75
2022/11/16 06:23:14;;;;;;;9.77;8.97;;;;;;;9.92;100.00;98993.00;5061108;28;20211;-74
2022/11/16 06:25:40;;;;;;;8.10;7.50;;;;;;;9.87;100.00;99002.63;5060522;28;20207;-75
2022/11/16 06:28:05;;;;;;;7.67;7.07;;;;;;;9.81;100.00;99008.81;5068410;28;20188;-75
2022/11/16 06:30:31;;;;;;;6.63;6.03;;;;;;;9.76;100.00;99010.66;5069938;28;20184;-75
2022/11/16 06:32:56;;;;;;;5.87;5.47;;;;;;;9.71;100.00;99012.50;5069883;28;20236;-75
2022/11/16 06:35:21;;;;;;;6.13;5.40;;;;;;;9.66;100.00;99012.63;5068903;28;20183;-76
2022/11/16 06:37:47;;;;;;;4.70;4.30;;;;;;;9.67;100.00;99018.66;5059959;28;20182;-74
2022/11/16 06:40:12;;;;;;;4.90;4.50;;;;;;;9.68;100.00;99018.59;5067802;28;20191;-74
2022/11/16 06:42:37;;;;;;;5.23;4.73;;;;;;;9.67;100.00;99006.56;5064397;28;20221;-74
2022/11/16 06:45:03;;;;;;;4.90;4.50;;;;;;;9.70;100.00;99011.66;5069032;28;20206;-74
2022/11/16 06:47:29;;;;;;;4.50;4.10;;;;;;;9.73;100.00;99008.16;5065764;28;20255;-73
2022/11/16 06:49:55;;;;;;;4.43;4.03;;;;;;;9.74;100.00;99021.03;5073428;28;20263;-73
2022/11/16 06:52:21;;;;;;;4.23;3.83;;;;;;;9.77;100.00;99017.53;5059261;28;20222;-75
2022/11/16 06:54:46;;;;;;;4.00;3.63;;;;;;;9.78;100.00;99011.47;5059248;28;20182;-76
2022/11/16 06:57:12;;;;;;;4.00;3.70;;;;;;;9.81;100.00;99015.69;5061427;28;20198;-75
2022/11/16 06:59:37;;;;;;;3.60;3.23;;;;;;;9.80;100.00;99012.28;5062756;28;20186;-75
2022/11/16 07:02:02;;;;;;;3.30;3.00;;;;;;;9.80;100.00;99012.28;5055973;28;20199;-76
2022/11/16 07:04:28;;;;;;;3.40;3.20;;;;;;;9.81;100.00;99013.09;5063037;28;20191;-75
2022/11/16 07:06:53;;;;;;;2.83;2.63;;;;;;;9.81;100.00;99019.16;5064489;28;20267;-75
2022/11/16 07:09:19;;;;;;;3.23;2.93;;;;;;;9.83;100.00;99025.09;5067898;28;20236;-74
2022/11/16 07:11:44;;;;;;;3.23;2.93;;;;;;;9.90;100.00;99025.81;5062178;28;20220;-75
2022/11/16 07:14:11;;;;;;;3.40;3.10;;;;;;;9.99;100.00;99033.31;5060388;28;20217;-74
2022/11/16 07:16:36;;;;;;;3.20;2.90;;;;;;;10.06;100.00;99039.97;5065536;28;20202;-75
2022/11/16 07:19:02;;;;;;;3.70;2.43;;;;;;;10.10;100.00;99037.31;5066558;28;20224;-75
2022/11/16 07:21:31;;;;;;;3.23;2.60;;;;;;;10.16;100.00;99042.34;5059464;28;20203;-75
2022/11/16 07:23:57;;;;;;;2.40;2.20;;;;;;;10.22;100.00;99050.78;5069909;28;20530;-74
2022/11/16 07:26:23;;;;;;;2.57;2.37;;;;;;;10.31;100.00;99044.50;5062145;28;20268;-75
2022/11/16 07:28:48;;;;;;;2.43;2.23;;;;;;;10.37;100.00;99051.25;5056072;28;20184;-74
2022/11/16 07:31:15;;;;;;;2.10;2.00;;;;;;;10.39;100.00;99044.31;5065352;28;20200;-76
2022/11/16 07:33:40;;;;;;;2.50;2.03;;;;;;;10.45;100.00;99043.28;5066305;28;20184;-75
2022/11/16 07:36:11;;;;;;;2.23;2.03;;;;;;;10.56;100.00;99053.34;5065168;28;20188;-75
2022/11/16 07:38:40;;;;;;;8.63;6.67;;;;;;;10.67;100.00;99053.88;5057896;28;20267;-74
2022/11/16 07:41:11;;;;;;;14.20;12.70;;;;;;;10.71;100.00;99049.44;5053391;28;20806;-77
2022/11/16 07:43:38;;;;;;;28.80;23.97;;;;;;;10.70;100.00;99053.78;5062222;28;20179;-77
2022/11/16 07:46:25;;;;;;;22.00;19.63;;;;;;;10.71;100.00;99059.78;5061739;28;20659;-76
2022/11/16 07:48:50;;;;;;;12.73;11.43;;;;;;;10.70;100.00;99060.69;5066324;28;20224;-76
2022/11/16 07:51:17;;;;;;;19.20;16.27;;;;;;;10.70;100.00;99063.28;5064531;28;20237;-75
2022/11/16 07:53:43;;;;;;;23.60;21.13;;;;;;;10.71;100.00;99060.66;5066501;28;20701;-75
2022/11/16 07:56:09;;;;;;;23.90;21.50;;;;;;;10.73;100.00;99052.84;5078324;28;20205;-75
2022/11/16 07:58:35;;;;;;;19.83;17.77;;;;;;;10.75;100.00;99053.66;5060684;28;20232;-75
2022/11/16 08:01:21;;;;;;;17.03;15.43;;;;;;;10.76;100.00;99052.75;5059271;28;20553;-75
2022/11/16 08:03:47;;;;;;;14.87;13.37;;;;;;;10.77;100.00;99050.09;5064854;28;20309;-75
2022/11/16 08:06:22;;;;;;;12.03;10.93;;;;;;;10.80;100.00;99056.97;5068516;28;20259;-76
2022/11/16 08:08:48;;;;;;;11.37;10.30;;;;;;;10.82;100.00;99053.41;5065111;28;20177;-74
2022/11/16 08:11:13;;;;;;;8.20;7.50;;;;;;;10.85;100.00;99051.63;5057580;28;20191;-75
2022/11/16 08:13:40;;;;;;;5.67;5.17;;;;;;;10.87;100.00;99058.44;5067017;28;20179;-75
2022/11/16 08:16:09;;;;;;;7.87;7.13;;;;;;;10.92;100.00;99047.97;5068538;28;20590;-76
2022/11/16 08:18:36;;;;;;;6.00;5.40;;;;;;;10.98;100.00;99051.19;5067830;28;20167;-74
2022/11/16 08:21:03;;;;;;;4.60;4.20;;;;;;;11.11;100.00;99046.50;5062998;28;20180;-75
2022/11/16 08:23:30;;;;;;;3.70;3.40;;;;;;;11.32;100.00;99041.56;5065964;28;20574;-77
2022/11/16 08:26:00;;;;;;;5.10;4.60;;;;;;;11.59;100.00;99047.56;5071037;28;20170;-76
2022/11/16 08:28:27;;;;;;;7.30;6.60;;;;;;;11.88;100.00;99050.06;5063578;28;20166;-75
2022/11/16 08:30:53;;;;;;;9.20;6.80;;;;;;;12.15;100.00;99052.63;5063960;28;20198;-74
2022/11/16 08:33:20;;;;;;;5.27;4.77;;;;;;;12.31;100.00;99052.94;5067729;28;20679;-75
2022/11/16 08:35:48;;;;;;;3.60;2.90;;;;;;;12.40;100.00;99064.75;5054245;28;20193;-74
2022/11/16 08:38:14;;;;;;;2.93;2.73;;;;;;;12.43;100.00;99059.44;5066031;28;20183;-75
2022/11/16 08:40:40;;;;;;;2.53;2.33;;;;;;;12.45;100.00;99053.28;5071350;28;20182;-74
2022/11/16 08:43:05;;;;;;;2.73;2.20;;;;;;;12.49;100.00;99054.03;5060940;28;20234;-75
2022/11/16 08:45:32;;;;;;;1.50;1.40;;;;;;;12.52;100.00;99048.72;5071866;28;20211;-76
2022/11/16 08:47:58;;;;;;;1.60;1.40;;;;;;;12.56;100.00;99047.69;5073580;28;20206;-74
2022/11/16 08:50:23;;;;;;;1.83;1.43;;;;;;;12.57;100.00;99040.75;5066530;28;21097;-76
2022/11/16 08:52:48;;;;;;;1.70;1.30;;;;;;;12.57;100.00;99043.34;5064392;28;20268;-73
2022/11/16 08:55:16;;;;;;;1.50;1.37;;;;;;;12.55;100.00;99040.84;5064689;28;20187;-74
2022/11/16 08:57:41;;;;;;;1.80;1.20;;;;;;;12.59;100.00;99044.16;5064516;28;20188;-76
2022/11/16 09:00:07;;;;;;;1.57;1.20;;;;;;;12.62;100.00;99047.47;5067158;28;20206;-76
2022/11/16 09:02:33;;;;;;;1.40;1.30;;;;;;;12.70;100.00;99044.59;5068655;28;20252;-75
2022/11/16 09:04:58;;;;;;;1.90;1.27;;;;;;;12.76;100.00;99043.50;5070114;28;20184;-76
2022/11/16 09:07:23;;;;;;;1.30;1.20;;;;;;;12.81;100.00;99052.81;5061554;28;20190;-76
2022/11/16 09:09:49;;;;;;;1.63;1.23;;;;;;;12.85;100.00;99053.56;5077291;28;20179;-75
2022/11/16 09:12:14;;;;;;;1.83;1.10;;;;;;;12.85;100.00;99050.09;5070473;28;20219;-75
2022/11/16 09:14:40;;;;;;;2.00;1.10;;;;;;;12.82;100.00;99048.47;5059035;28;20186;-77
2022/11/16 09:17:09;;;;;;;1.50;1.20;;;;;;;12.83;100.00;99055.38;5060114;28;20198;-75
2022/11/16 09:19:35;;;;;;;1.50;1.40;;;;;;;12.92;100.00;99057.59;5054187;28;20190;-76
2022/11/16 09:22:00;;;;;;;1.60;1.40;;;;;;;13.03;100.00;99062.38;5065609;28;20204;-77
2022/11/16 09:24:25;;;;;;;2.30;1.10;;;;;;;13.09;100.00;99067.31;5072025;28;20238;-76
2022/11/16 09:26:51;;;;;;;1.87;1.17;;;;;;;13.11;100.00;99056.88;5051854;28;20188;-77
2022/11/16 09:29:16;;;;;;;1.87;1.00;;;;;;;13.11;100.00;99056.88;5069400;28;20559;-77
2022/11/16 09:31:41;;;;;;;1.97;1.00;;;;;;;13.13;100.00;99062.88;5068489;28;20210;-75
2022/11/16 09:34:07;;;;;;;1.20;1.10;;;;;;;13.15;100.00;99071.47;5068361;28;20244;-76
2022/11/16 09:36:33;;;;;;;1.17;0.97;;;;;;;13.17;100.00;99064.44;5068503;28;20189;-76
2022/11/16 09:38:58;;;;;;;1.83;1.20;;;;;;;13.16;100.00;99061.91;5063480;28;20223;-76
2022/11/16 09:41:27;;;;;;;2.47;1.00;;;;;;;13.15;100.00;99078.38;5057469;28;20244;-75
2022/11/16 09:44:07;;;;;;;1.70;1.10;;;;;;;13.20;100.00;99073.88;5068847;28;20180;-74
2022/11/16 09:46:35;;;;;;;1.07;0.90;;;;;;;13.25;100.00;99077.13;5061228;28;20193;-74
2022/11/16 09:49:06;;;;;;;1.67;1.10;;;;;;;13.28;100.00;99077.00;5068949;28;20727;-75
2022/11/16 09:51:33;;;;;;;1.03;0.90;;;;;;;13.34;100.00;99076.75;5059991;28;20221;-76
2022/11/16 09:53:59;;;;;;;3.40;1.30;;;;;;;13.51;100.00;99078.72;5059499;28;20616;-75
2022/11/16 09:56:27;;;;;;;1.03;0.87;;;;;;;13.69;100.00;99076.28;5064185;28;20206;-75
2022/11/16 09:59:07;;;;;;;2.57;1.07;;;;;;;13.84;100.00;99080.00;5059120;28;20303;-77
2022/11/16 10:01:40;;;;;;;1.57;1.10;;;;;;;13.93;100.00;99083.94;5071668;28;20285;-76
2022/11/16 10:04:11;;;;;;;1.90;1.17;;;;;;;14.03;100.00;99087.88;5070926;28;20189;-77
2022/11/16 10:06:53;;;;;;;3.27;1.10;;;;;;;14.06;100.00;99084.28;5070607;28;20559;-74
2022/11/16 10:09:19;;;;;;;2.30;1.10;;;;;;;14.03;100.00;99080.91;5063090;28;20188;-76
2022/11/16 10:11:54;;;;;;;2.03;0.87;;;;;;;13.92;100.00;99077.91;5065391;28;20213;-76
2022/11/16 10:14:40;;;;;;;3.30;1.10;;;;;;;13.89;100.00;99072.84;5064361;28;20201;-75
2022/11/16 10:17:15;;;;;;;1.83;1.03;;;;;;;13.90;100.00;99079.72;5060889;28;20199;-75
2022/11/16 10:19:55;;;;;;;1.27;0.97;;;;;;;13.83;100.00;99070.50;5065527;28;20300;-76
2022/11/16 10:22:26;;;;;;;2.80;1.00;;;;;;;13.59;100.00;99070.59;5060861;28;20209;-76
2022/11/16 10:24:52;;;;;;;2.27;1.20;;;;;;;13.33;100.00;99063.81;5062481;28;20189;-74
2022/11/16 10:27:33;;;;;;;1.57;1.23;;;;;;;13.08;100.00;99054.41;5068343;28;20687;-74
2022/11/16 10:30:09;;;;;;;1.80;1.10;;;;;;;12.87;100.00;99056.91;5064157;28;20178;-75
2022/11/16 10:32:54;;;;;;;2.70;1.40;;;;;;;12.71;100.00;99045.41;5064608;28;20214;-76
2022/11/16 10:35:23;;;;;;;1.90;1.43;;;;;;;12.55;100.00;99059.00;5066604;28;20332;-77
2022/11/16 10:37:50;;;;;;;2.10;1.23;;;;;;;12.45;100.00;99042.06;5067283;28;20310;-73
2022/11/16 10:40:29;;;;;;;2.03;1.27;;;;;;;12.46;100.00;99041.16;5072108;28;20596;-76
2022/11/16 10:43:17;;;;;;;1.80;1.10;;;;;;;12.68;100.00;99041.19;5065063;28;20207;-75
2022/11/16 10:46:02;;;;;;;2.33;1.40;;;;;;;12.98;100.00;99032.31;5065957;28;20292;-75
2022/11/16 10:48:38;;;;;;;1.63;1.10;;;;;;;13.28;100.00;99032.84;5074745;28;20287;-77
2022/11/16 10:51:04;;;;;;;2.37;1.20;;;;;;;13.54;100.00;99030.94;5062161;28;20692;-76
2022/11/16 10:53:38;;;;;;;1.33;1.03;;;;;;;13.78;100.00;99020.44;5070860;28;20188;-76
2022/11/16 10:56:13;;;;;;;3.23;1.30;;;;;;;13.97;100.00;99013.53;5063819;28;20200;-76
2022/11/16 10:58:54;;;;;;;1.43;1.00;;;;;;;13.96;100.00;99021.41;5068758;28;20180;-75
2022/11/16 11:01:28;;;;;;;2.53;1.43;;;;;;;13.81;100.00;99013.34;5057244;28;20211;-77
2022/11/16 11:03:53;;;;;;;2.00;1.30;;;;;;;13.62;100.00;99022.81;5060343;28;20241;-75
2022/11/16 11:06:25;;;;;;;2.57;1.40;;;;;;;13.44;100.00;99027.91;5069375;28;20186;-76
2022/11/16 11:08:50;;;;;;;2.23;1.10;;;;;;;13.29;100.00;99015.50;5061330;28;20228;-76
2022/11/16 11:14:11;;;;;;;1.63;1.20;;;;;;;13.00;100.00;99015.75;5064248;28;20679;-74
2022/11/16 11:16:37;;;;;;;2.70;1.40;;;;;;;12.92;100.00;99012.63;5058656;28;20189;-75
2022/11/16 11:19:24;;;;;;;2.30;1.40;;;;;;;12.85;100.00;99006.81;5060253;28;22134;-75
2022/11/16 11:21:55;;;;;;;1.27;1.00;;;;;;;12.81;100.00;99020.81;5061674;28;20213;-75
2022/11/16 11:24:20;;;;;;;1.43;0.93;;;;;;;12.80;100.00;99016.53;5062726;28;20557;-74
2022/11/16 11:26:51;;;;;;;1.83;0.73;;;;;;;12.86;100.00;99002.47;5064579;28;20300;-76
2022/11/16 11:29:28;;;;;;;2.30;0.90;;;;;;;13.00;100.00;99004.53;5067040;28;20212;-75
2022/11/16 11:31:58;;;;;;;1.43;1.10;;;;;;;13.09;100.00;99002.38;5053935;28;20235;-76
2022/11/16 11:34:27;;;;;;;2.70;1.10;;;;;;;13.15;100.00;99003.91;5059702;28;20886;-75
2022/11/16 11:36:59;;;;;;;1.93;1.23;;;;;;;13.21;100.00;99006.25;5060151;28;20189;-76
2022/11/16 11:39:30;;;;;;;3.30;1.20;;;;;;;13.23;100.00;98999.25;5064043;28;20271;-75
2022/11/16 11:42:22;;;;;;;1.30;0.90;;;;;;;13.31;100.00;98995.50;5055975;28;20202;-76
2022/11/16 11:44:55;;;;;;;1.30;0.93;;;;;;;13.36;100.00;98986.59;5060731;28;21021;-74
2022/11/16 11:47:23;;;;;;;2.80;1.20;;;;;;;13.59;100.00;98984.81;5060393;28;20427;-77
2022/11/16 11:49:54;;;;;;;2.40;1.17;;;;;;;13.87;100.00;98988.81;5064219;28;20190;-75
2022/11/16 11:52:32;;;;;;;2.63;1.07;;;;;;;14.12;100.00;98991.19;5056502;28;20213;-74
2022/11/16 11:55:01;;;;;;;2.10;0.70;;;;;;;14.39;100.00;98996.06;5071014;28;20247;-74
2022/11/16 11:57:27;;;;;;;2.53;0.93;;;;;;;14.56;100.00;98984.91;5067143;28;20273;-75
2022/11/16 11:59:54;;;;;;;2.27;1.00;;;;;;;14.70;100.00;98986.03;5067818;28;20268;-77
2022/11/16 12:02:51;;;;;;;1.80;0.90;;;;;;;14.80;100.00;98978.66;5060043;28;20201;-75
2022/11/16 12:05:42;;;;;;;1.73;0.83;;;;;;;14.84;100.00;98974.97;5043412;28;20193;-75
2022/11/16 12:08:09;;;;;;;2.00;1.00;;;;;;;14.81;100.00;98967.31;5066250;28;20814;-76
2022/11/16 12:11:09;;;;;;;3.67;0.97;;;;;;;14.72;100.00;98974.63;5073355;28;20276;-74
2022/11/16 12:14:14;;;;;;;1.53;0.87;;;;;;;14.69;100.00;98968.72;5001842;28;20210;-76
2022/11/16 12:16:52;;;;;;;2.37;0.87;;;;;;;14.71;100.00;98972.13;5070371;28;20519;-77